createdAt,value
2023-05-27T00:01:15.384Z,77.90
2023-05-27T00:03:48.037Z,78.20
2023-05-27T00:06:20.662Z,78.40
2023-05-27T00:08:52.667Z,78.50
2023-05-27T00:11:26.339Z,78.70
2023-05-27T00:13:58.306Z,78.90
2023-05-27T00:16:30.473Z,79.10
2023-05-27T00:19:06.427Z,79.40
2023-05-27T00:21:38.490Z,79.40
2023-05-27T00:24:11.810Z,79.70
2023-05-27T00:26:43.952Z,80.00
2023-05-27T00:29:18.279Z,80.20
2023-05-27T00:31:50.298Z,80.20
2023-05-27T00:34:22.931Z,80.50
2023-05-27T00:36:54.946Z,80.60
2023-05-27T00:39:27.287Z,80.80
2023-05-27T00:41:59.594Z,81.00
2023-05-27T00:44:31.562Z,81.10
2023-05-27T00:47:03.760Z,81.30
2023-05-27T00:49:35.984Z,81.60
2023-05-27T00:52:08.047Z,81.70
2023-05-27T00:54:43.842Z,81.90
2023-05-27T00:57:15.966Z,82.00
2023-05-27T00:59:48.175Z,82.10
2023-05-27T01:02:20.261Z,82.10
2023-05-27T01:04:52.259Z,82.50
2023-05-27T01:07:40.063Z,82.80
2023-05-27T01:10:20.829Z,83.10
2023-05-27T01:13:04.602Z,83.20
2023-05-27T01:15:37.684Z,83.30
2023-05-27T01:18:17.946Z,83.50
2023-05-27T01:20:52.797Z,83.60
2023-05-27T01:23:25.709Z,83.60
2023-05-27T01:25:57.663Z,83.80
2023-05-27T01:28:29.627Z,84.00
2023-05-27T01:31:19.022Z,84.10
2023-05-27T01:34:07.424Z,84.40
2023-05-27T01:36:49.865Z,84.80
2023-05-27T01:39:24.498Z,84.90
2023-05-27T01:41:57.383Z,85.00
2023-05-27T01:44:31.719Z,85.10
2023-05-27T01:47:04.342Z,85.40
2023-05-27T01:49:36.515Z,85.70
2023-05-27T01:52:09.879Z,85.80
2023-05-27T01:54:41.897Z,86.00
2023-05-27T01:57:14.202Z,86.50
2023-05-27T01:59:46.313Z,86.60
2023-05-27T02:02:18.366Z,86.50
2023-05-27T02:04:50.458Z,86.60
2023-05-27T02:07:22.473Z,87.10
2023-05-27T02:09:54.625Z,87.40
2023-05-27T02:12:26.574Z,87.70
2023-05-27T02:14:58.562Z,87.80
2023-05-27T02:17:30.797Z,88.20
2023-05-27T02:20:04.751Z,88.40
2023-05-27T02:22:36.802Z,88.60
2023-05-27T02:25:09.754Z,88.90
2023-05-27T02:27:43.220Z,89.00
2023-05-27T02:30:17.112Z,89.30
2023-05-27T02:32:49.188Z,89.70
2023-05-27T02:35:22.682Z,89.80
2023-05-27T02:37:54.725Z,89.90
2023-05-27T02:40:30.862Z,90.00
2023-05-27T02:43:02.889Z,90.20
2023-05-27T02:45:35.383Z,90.20
2023-05-27T02:48:07.746Z,90.40
2023-05-27T02:50:40.287Z,90.40
2023-05-27T02:53:12.312Z,90.50
2023-05-27T02:55:44.309Z,90.60
2023-05-27T02:58:16.388Z,90.80
2023-05-27T03:00:48.420Z,90.90
2023-05-27T03:03:20.519Z,91.00
2023-05-27T03:05:52.831Z,91.10
2023-05-27T03:08:25.017Z,91.20
2023-05-27T03:10:57.107Z,91.40
2023-05-27T03:13:29.129Z,91.40
2023-05-27T03:16:01.720Z,91.60
2023-05-27T03:18:33.722Z,91.60
2023-05-27T03:21:05.985Z,91.70
2023-05-27T03:23:37.973Z,91.80
2023-05-27T03:26:10.054Z,91.90
2023-05-27T03:28:42.087Z,92.00
2023-05-27T03:31:14.935Z,93.10
2023-05-27T03:33:47.071Z,93.00
2023-05-27T03:36:19.112Z,92.90
2023-05-27T03:38:51.123Z,92.80
2023-05-27T03:41:23.324Z,92.80
2023-05-27T03:43:55.323Z,92.90
2023-05-27T03:46:27.412Z,93.00
2023-05-27T03:48:59.543Z,93.00
2023-05-27T03:51:32.378Z,93.10
2023-05-27T03:54:04.503Z,93.20
2023-05-27T03:56:36.498Z,93.30
2023-05-27T03:59:08.849Z,93.50
2023-05-27T04:01:42.282Z,93.60
2023-05-27T04:04:14.896Z,93.60
2023-05-27T04:06:46.881Z,93.70
2023-05-27T04:09:18.874Z,93.80
2023-05-27T04:11:51.028Z,93.90
2023-05-27T04:14:22.975Z,93.90
2023-05-27T04:16:55.013Z,94.00
2023-05-27T04:19:27.176Z,94.10
2023-05-27T04:21:59.264Z,94.20
2023-05-27T04:24:31.375Z,94.30
2023-05-27T04:27:03.715Z,94.30
2023-05-27T04:29:35.723Z,94.40
2023-05-27T04:32:07.796Z,94.50
2023-05-27T04:34:42.450Z,94.50
2023-05-27T04:37:14.861Z,94.60
2023-05-27T04:39:47.893Z,94.60
2023-05-27T04:42:20.919Z,94.70
2023-05-27T04:44:52.986Z,94.70
2023-05-27T04:47:25.146Z,94.80
2023-05-27T04:49:57.590Z,94.90
2023-05-27T04:52:29.597Z,94.90
2023-05-27T04:55:02.672Z,95.00
2023-05-27T04:57:34.892Z,95.00
2023-05-27T05:00:09.316Z,95.20
2023-05-27T05:02:43.151Z,95.30
2023-05-27T05:05:15.857Z,95.40
2023-05-27T05:07:47.833Z,95.40
2023-05-27T05:10:19.851Z,95.40
2023-05-27T05:12:52.094Z,95.60
2023-05-27T05:15:24.413Z,95.60
2023-05-27T05:17:57.474Z,95.60
2023-05-27T05:20:30.814Z,95.70
2023-05-27T05:23:03.036Z,95.70
2023-05-27T05:25:39.120Z,95.80
2023-05-27T05:28:11.826Z,95.80
2023-05-27T05:30:44.386Z,95.80
2023-05-27T05:33:16.645Z,95.90
2023-05-27T05:35:48.607Z,95.90
2023-05-27T05:38:20.637Z,95.90
2023-05-27T05:40:53.754Z,96.00
2023-05-27T05:43:27.063Z,95.90
2023-05-27T05:46:01.225Z,95.80
2023-05-27T05:48:33.277Z,95.80
2023-05-27T05:51:05.285Z,95.70
2023-05-27T05:53:37.554Z,95.70
2023-05-27T05:56:09.762Z,95.70
2023-05-27T05:58:41.770Z,95.50
2023-05-27T06:01:13.812Z,95.60
2023-05-27T06:03:46.274Z,95.60
2023-05-27T06:06:18.375Z,95.50
2023-05-27T06:08:50.302Z,95.40
2023-05-27T06:11:22.767Z,95.30
2023-05-27T06:13:54.733Z,95.20
2023-05-27T06:16:27.018Z,95.00
2023-05-27T06:18:59.014Z,95.10
2023-05-27T06:21:33.037Z,95.00
2023-05-27T06:24:05.777Z,94.90
2023-05-27T06:26:37.793Z,94.80
2023-05-27T06:29:09.794Z,94.70
2023-05-27T06:31:41.851Z,94.70
2023-05-27T06:34:13.879Z,94.60
2023-05-27T06:36:49.850Z,94.40
2023-05-27T06:39:22.061Z,94.20
2023-05-27T06:41:54.005Z,94.20
2023-05-27T06:44:26.016Z,93.90
2023-05-27T06:46:58.243Z,93.90
2023-05-27T06:49:30.821Z,94.00
2023-05-27T06:52:03.153Z,94.00
2023-05-27T06:54:35.545Z,93.80
2023-05-27T06:57:07.582Z,93.60
2023-05-27T06:59:40.950Z,93.50
2023-05-27T07:02:12.945Z,93.30
2023-05-27T07:04:45.036Z,93.20
2023-05-27T07:07:17.093Z,93.10
2023-05-27T07:09:49.079Z,93.00
2023-05-27T07:12:21.596Z,92.80
2023-05-27T07:14:53.626Z,92.40
2023-05-27T07:17:25.691Z,92.30
2023-05-27T07:19:57.810Z,91.90
2023-05-27T07:22:30.202Z,91.80
2023-05-27T07:25:02.355Z,91.70
2023-05-27T07:27:34.365Z,91.40
2023-05-27T07:30:07.434Z,91.30
2023-05-27T07:32:39.691Z,91.20
2023-05-27T07:35:11.783Z,91.00
2023-05-27T07:37:43.745Z,90.80
2023-05-27T07:40:15.821Z,90.40
2023-05-27T07:42:47.829Z,90.20
2023-05-27T07:45:19.878Z,89.90
2023-05-27T07:47:51.995Z,89.70
2023-05-27T07:50:24.390Z,89.40
2023-05-27T07:52:56.468Z,88.90
2023-05-27T07:55:28.574Z,88.10
2023-05-27T07:58:00.631Z,87.70
2023-05-27T08:00:32.692Z,87.50
2023-05-27T08:03:04.878Z,87.20
2023-05-27T08:05:36.887Z,87.00
2023-05-27T08:08:08.884Z,86.80
2023-05-27T08:10:41.105Z,86.20
2023-05-27T08:13:13.136Z,85.40
2023-05-27T08:15:45.162Z,85.10
2023-05-27T08:18:17.724Z,84.80
2023-05-27T08:20:50.991Z,84.20
2023-05-27T08:23:23.588Z,83.60
2023-05-27T08:25:56.316Z,83.30
2023-05-27T08:28:28.280Z,83.00
2023-05-27T08:31:00.264Z,82.60
2023-05-27T08:33:32.248Z,82.50
2023-05-27T08:36:04.687Z,82.00
2023-05-27T08:38:36.682Z,81.80
2023-05-27T08:41:08.651Z,81.50
2023-05-27T08:43:41.463Z,81.30
2023-05-27T08:46:15.139Z,81.00
2023-05-27T08:48:47.833Z,80.80
2023-05-27T08:51:20.017Z,80.30
2023-05-27T08:53:52.153Z,80.00
2023-05-27T08:56:27.064Z,79.80
2023-05-27T08:58:59.411Z,79.70
2023-05-27T09:01:32.904Z,80.30
2023-05-27T09:04:05.213Z,79.20
2023-05-27T09:06:37.316Z,78.80
2023-05-27T09:09:10.802Z,78.60
2023-05-27T09:11:43.767Z,78.40
2023-05-27T09:14:24.812Z,78.10
2023-05-27T09:16:57.825Z,77.70
2023-05-27T09:19:31.973Z,77.40
2023-05-27T09:22:04.282Z,76.80
2023-05-27T09:24:36.257Z,76.50
2023-05-27T09:27:10.680Z,76.40
2023-05-27T09:29:42.751Z,75.90
2023-05-27T09:32:24.786Z,76.20
2023-05-27T09:35:05.585Z,75.20
2023-05-27T09:37:37.719Z,74.80
2023-05-27T09:40:16.404Z,74.20
2023-05-27T09:42:50.220Z,73.70
2023-05-27T09:45:22.571Z,74.10
2023-05-27T09:47:55.297Z,73.20
2023-05-27T09:50:27.911Z,73.00
2023-05-27T09:53:11.068Z,72.60
2023-05-27T09:55:44.664Z,72.20
2023-05-27T09:58:17.402Z,72.10
2023-05-27T10:00:51.640Z,71.70
2023-05-27T10:03:29.823Z,71.40
2023-05-27T10:06:03.925Z,71.20
2023-05-27T10:08:36.431Z,70.90
2023-05-27T10:11:08.496Z,70.70
2023-05-27T10:13:41.471Z,70.50
2023-05-27T10:16:24.167Z,70.00
2023-05-27T10:18:58.643Z,69.10
2023-05-27T10:21:34.352Z,68.90
2023-05-27T10:24:14.867Z,68.70
2023-05-27T10:26:49.456Z,68.50
2023-05-27T10:29:21.468Z,68.30
2023-05-27T10:31:54.314Z,67.90
2023-05-27T10:34:36.882Z,67.60
2023-05-27T10:37:09.310Z,67.50
2023-05-27T10:39:41.531Z,67.90
2023-05-27T10:42:24.210Z,68.30
2023-05-27T10:45:14.668Z,68.60
2023-05-27T10:47:47.893Z,68.50
2023-05-27T10:50:20.235Z,68.40
2023-05-27T10:52:53.523Z,68.40
2023-05-27T10:55:26.980Z,68.20
2023-05-27T10:57:59.707Z,68.40
2023-05-27T11:00:33.003Z,68.40
2023-05-27T11:03:05.087Z,68.80
2023-05-27T11:05:37.112Z,68.90
2023-05-27T11:08:14.211Z,68.50
2023-05-27T11:10:46.375Z,67.70
2023-05-27T11:13:18.343Z,67.40
2023-05-27T11:15:50.352Z,67.00
2023-05-27T11:18:22.426Z,66.70
2023-05-27T11:20:58.480Z,65.80
2023-05-27T11:23:50.523Z,64.90
2023-05-27T11:26:24.665Z,64.00
2023-05-27T11:28:59.934Z,63.60
2023-05-27T11:31:32.664Z,63.20
2023-05-27T11:34:04.984Z,63.00
2023-05-27T11:36:37.450Z,62.10
2023-05-27T11:39:19.797Z,61.30
2023-05-27T11:41:55.154Z,60.60
2023-05-27T11:44:28.597Z,60.30
2023-05-27T11:47:01.762Z,59.90
2023-05-27T11:49:36.152Z,59.40
2023-05-27T11:52:08.095Z,58.60
2023-05-27T11:54:43.510Z,58.00
2023-05-27T11:57:18.601Z,57.40
2023-05-27T11:59:50.762Z,57.20
2023-05-27T12:02:24.522Z,57.30
2023-05-27T12:04:56.733Z,57.20
2023-05-27T12:07:28.700Z,56.60
2023-05-27T12:10:00.924Z,56.40
2023-05-27T12:12:35.239Z,56.50
2023-05-27T12:15:08.314Z,56.70
2023-05-27T12:17:40.426Z,56.60
2023-05-27T12:20:12.760Z,56.50
2023-05-27T12:22:44.827Z,56.40
2023-05-27T12:25:16.822Z,56.50
2023-05-27T12:27:48.879Z,56.40
2023-05-27T12:30:21.490Z,56.10
2023-05-27T12:32:53.563Z,56.00
2023-05-27T12:35:25.591Z,56.10
2023-05-27T12:37:58.739Z,55.80
2023-05-27T12:40:30.832Z,55.60
2023-05-27T12:43:05.170Z,55.50
2023-05-27T12:45:37.377Z,55.50
2023-05-27T12:48:09.411Z,55.50
2023-05-27T12:50:41.872Z,55.50
2023-05-27T12:53:14.162Z,55.60
2023-05-27T12:55:46.222Z,55.50
2023-05-27T12:58:18.532Z,55.40
2023-05-27T13:00:50.582Z,55.20
2023-05-27T13:03:22.815Z,54.90
2023-05-27T13:05:54.828Z,54.80
2023-05-27T13:08:26.864Z,54.60
2023-05-27T13:10:58.896Z,54.40
2023-05-27T13:13:31.048Z,54.10
2023-05-27T13:16:03.520Z,53.70
2023-05-27T13:18:35.683Z,53.60
2023-05-27T13:21:07.702Z,53.80
2023-05-27T13:23:39.684Z,53.70
2023-05-27T13:26:12.099Z,53.70
2023-05-27T13:28:44.075Z,53.70
2023-05-27T13:31:16.474Z,53.90
2023-05-27T13:33:48.675Z,53.70
2023-05-27T13:36:20.678Z,53.80
2023-05-27T13:38:52.651Z,53.20
2023-05-27T13:41:24.853Z,52.90
2023-05-27T13:43:56.840Z,52.90
2023-05-27T13:46:28.906Z,52.70
2023-05-27T13:49:01.355Z,52.50
2023-05-27T13:51:33.938Z,52.10
2023-05-27T13:54:05.991Z,51.70
2023-05-27T13:56:38.540Z,51.70
2023-05-27T13:59:11.160Z,51.40
2023-05-27T14:01:43.336Z,51.30
2023-05-27T14:04:15.440Z,51.50
2023-05-27T14:06:47.506Z,51.50
2023-05-27T14:09:19.509Z,51.60
2023-05-27T14:11:51.542Z,51.60
2023-05-27T14:14:23.555Z,51.40
2023-05-27T14:16:55.931Z,51.90
2023-05-27T14:19:28.085Z,51.20
2023-05-27T14:21:59.997Z,51.20
2023-05-27T14:24:32.106Z,51.10
2023-05-27T14:27:04.396Z,51.00
2023-05-27T14:29:37.068Z,50.80
2023-05-27T14:32:09.181Z,50.50
2023-05-27T14:34:41.244Z,50.50
2023-05-27T14:37:13.366Z,50.50
2023-05-27T14:39:45.356Z,50.30
2023-05-27T14:42:17.322Z,50.20
2023-05-27T14:44:49.347Z,50.20
2023-05-27T14:47:23.015Z,50.40
2023-05-27T14:49:54.971Z,50.50
2023-05-27T14:52:26.936Z,50.40
2023-05-27T14:54:59.749Z,50.50
2023-05-27T14:57:35.188Z,50.50
2023-05-27T15:00:11.128Z,50.60
2023-05-27T15:02:43.256Z,50.70
2023-05-27T15:05:15.605Z,50.60
2023-05-27T15:07:47.669Z,50.50
2023-05-27T15:10:19.919Z,50.30
2023-05-27T15:12:52.028Z,50.00
2023-05-27T15:15:24.167Z,49.80
2023-05-27T15:17:56.805Z,49.90
2023-05-27T15:20:29.074Z,49.70
2023-05-27T15:23:01.241Z,49.50
2023-05-27T15:25:33.284Z,49.20
2023-05-27T15:28:05.277Z,49.00
2023-05-27T15:30:37.252Z,48.90
2023-05-27T15:33:09.372Z,48.80
2023-05-27T15:35:41.341Z,48.60
2023-05-27T15:38:14.582Z,49.10
2023-05-27T15:40:47.375Z,48.40
2023-05-27T15:43:19.402Z,48.20
2023-05-27T15:46:03.678Z,47.90
2023-05-27T15:48:36.677Z,47.70
2023-05-27T15:51:09.097Z,47.50
2023-05-27T15:53:41.091Z,47.30
2023-05-27T15:56:13.376Z,47.20
2023-05-27T15:58:45.410Z,47.10
2023-05-27T16:01:17.470Z,47.20
2023-05-27T16:03:49.498Z,47.10
2023-05-27T16:06:21.518Z,47.10
2023-05-27T16:08:54.674Z,47.10
2023-05-27T16:11:27.593Z,47.10
2023-05-27T16:13:59.507Z,47.10
2023-05-27T16:16:31.542Z,47.10
2023-05-27T16:19:03.577Z,47.00
2023-05-27T16:21:36.120Z,47.10
2023-05-27T16:24:08.407Z,47.10
2023-05-27T16:26:40.550Z,47.10
2023-05-27T16:29:12.500Z,47.00
2023-05-27T16:31:44.590Z,47.10
2023-05-27T16:34:16.627Z,47.10
2023-05-27T16:36:48.629Z,47.10
2023-05-27T16:39:20.595Z,47.10
2023-05-27T16:41:52.841Z,46.60
2023-05-27T16:44:24.842Z,46.30
2023-05-27T16:46:56.936Z,46.20
2023-05-27T16:49:28.868Z,46.10
2023-05-27T16:52:01.106Z,46.10
2023-05-27T16:54:33.148Z,46.20
2023-05-27T16:57:05.728Z,46.10
2023-05-27T16:59:37.680Z,46.10
2023-05-27T17:02:10.495Z,46.10
2023-05-27T17:04:42.485Z,46.10
2023-05-27T17:07:14.559Z,46.20
2023-05-27T17:09:47.688Z,46.20
2023-05-27T17:12:19.755Z,46.20
2023-05-27T17:14:52.320Z,46.30
2023-05-27T17:17:24.408Z,46.70
2023-05-27T17:19:56.666Z,46.80
2023-05-27T17:22:28.699Z,46.70
2023-05-27T17:25:00.748Z,46.70
2023-05-27T17:27:32.710Z,46.90
2023-05-27T17:30:05.517Z,47.00
2023-05-27T17:32:37.546Z,47.20
2023-05-27T17:35:10.039Z,47.50
2023-05-27T17:37:42.411Z,48.20
2023-05-27T17:40:14.496Z,48.90
2023-05-27T17:42:47.799Z,50.00
2023-05-27T17:45:19.793Z,51.70
2023-05-27T17:47:52.218Z,51.70
2023-05-27T17:50:24.589Z,51.80
2023-05-27T17:52:56.637Z,51.50
2023-05-27T17:55:28.673Z,51.00
2023-05-27T17:58:00.934Z,51.10
2023-05-27T18:00:33.451Z,50.90
2023-05-27T18:03:09.135Z,50.90
2023-05-27T18:05:41.395Z,51.00
2023-05-27T18:08:13.419Z,51.00
2023-05-27T18:10:46.723Z,50.70
2023-05-27T18:13:18.696Z,50.60
2023-05-27T18:15:51.568Z,50.60
2023-05-27T18:18:23.711Z,50.50
2023-05-27T18:20:57.022Z,50.90
2023-05-27T18:23:29.073Z,51.00
2023-05-27T18:26:01.276Z,51.00
2023-05-27T18:28:33.283Z,51.20
2023-05-27T18:31:05.389Z,51.40
2023-05-27T18:33:37.476Z,51.80
2023-05-27T18:36:09.604Z,52.00
2023-05-27T18:38:41.596Z,52.50
2023-05-27T18:41:13.636Z,52.90
2023-05-27T18:43:45.602Z,53.10
2023-05-27T18:46:17.609Z,53.40
2023-05-27T18:48:49.668Z,53.70
2023-05-27T18:51:22.813Z,53.80
2023-05-27T18:53:54.877Z,54.40
2023-05-27T18:56:27.785Z,54.60
2023-05-27T18:59:00.483Z,55.10
2023-05-27T19:01:32.652Z,55.60
2023-05-27T19:04:04.705Z,56.20
2023-05-27T19:06:37.485Z,56.70
2023-05-27T19:09:09.487Z,57.40
2023-05-27T19:11:41.694Z,57.80
2023-05-27T19:14:14.204Z,58.30
2023-05-27T19:16:46.204Z,58.40
2023-05-27T19:19:18.266Z,58.80
2023-05-27T19:21:50.326Z,59.10
2023-05-27T19:24:22.408Z,59.40
2023-05-27T19:26:54.449Z,59.80
2023-05-27T19:29:26.403Z,60.10
2023-05-27T19:31:58.592Z,60.10
2023-05-27T19:34:30.783Z,60.40
2023-05-27T19:37:02.751Z,60.70
2023-05-27T19:39:34.893Z,60.90
2023-05-27T19:42:07.138Z,61.50
2023-05-27T19:44:39.082Z,62.00
2023-05-27T19:47:11.321Z,62.40
2023-05-27T19:49:43.391Z,62.40
2023-05-27T19:52:15.656Z,62.60
2023-05-27T19:54:47.686Z,62.80
2023-05-27T19:57:19.696Z,63.00
2023-05-27T19:59:51.786Z,63.50
2023-05-27T20:02:23.903Z,63.90
2023-05-27T20:04:55.979Z,64.20
2023-05-27T20:07:27.982Z,64.60
2023-05-27T20:10:00.162Z,64.70
2023-05-27T20:12:43.976Z,65.00
2023-05-27T20:15:17.082Z,65.60
2023-05-27T20:17:49.203Z,65.70
2023-05-27T20:20:27.461Z,66.60
2023-05-27T20:22:59.777Z,66.30
2023-05-27T20:25:31.835Z,66.70
2023-05-27T20:28:03.999Z,66.90
2023-05-27T20:30:36.145Z,67.20
2023-05-27T20:33:08.312Z,67.60
2023-05-27T20:35:40.423Z,67.70
2023-05-27T20:38:13.506Z,68.00
2023-05-27T20:40:45.817Z,68.30
2023-05-27T20:43:17.814Z,68.40
2023-05-27T20:45:49.783Z,68.70
2023-05-27T20:48:21.744Z,69.00
2023-05-27T20:50:53.913Z,69.20
2023-05-27T20:53:26.144Z,69.40
2023-05-27T20:55:58.154Z,69.60
2023-05-27T20:58:30.337Z,70.60
2023-05-27T21:01:02.428Z,70.20
2023-05-27T21:03:35.124Z,70.40
2023-05-27T21:06:07.228Z,70.80
2023-05-27T21:08:39.523Z,71.10
2023-05-27T21:11:11.552Z,71.50
2023-05-27T21:13:44.087Z,71.50
2023-05-27T21:16:16.341Z,71.80
2023-05-27T21:18:48.498Z,72.20
2023-05-27T21:21:20.648Z,72.50
2023-05-27T21:23:52.651Z,72.80
2023-05-27T21:26:24.752Z,73.20
2023-05-27T21:28:57.126Z,73.30
2023-05-27T21:31:29.144Z,73.60
2023-05-27T21:34:01.798Z,73.80
2023-05-27T21:36:34.563Z,74.00
2023-05-27T21:39:06.757Z,74.10
2023-05-27T21:41:38.979Z,74.40
2023-05-27T21:44:11.050Z,74.80
2023-05-27T21:46:43.056Z,75.70
2023-05-27T21:49:15.065Z,75.80
2023-05-27T21:51:47.104Z,76.00
2023-05-27T21:54:19.083Z,76.10
2023-05-27T21:56:51.205Z,76.40
2023-05-27T21:59:23.310Z,76.30
2023-05-27T22:01:55.531Z,76.80
2023-05-27T22:04:27.579Z,76.90
2023-05-27T22:06:59.681Z,77.10
2023-05-27T22:09:31.810Z,77.30
2023-05-27T22:12:04.034Z,77.70
2023-05-27T22:14:36.387Z,77.80
2023-05-27T22:17:08.530Z,78.10
2023-05-27T22:19:40.837Z,78.40
2023-05-27T22:22:12.841Z,78.60
2023-05-27T22:24:45.012Z,78.70
2023-05-27T22:27:17.489Z,79.00
2023-05-27T22:29:50.733Z,79.30
2023-05-27T22:32:22.757Z,79.50
2023-05-27T22:34:54.753Z,79.70
2023-05-27T22:37:26.737Z,80.00
2023-05-27T22:39:58.874Z,80.40
2023-05-27T22:42:30.948Z,80.50
2023-05-27T22:45:03.595Z,80.80
2023-05-27T22:47:39.592Z,81.00
2023-05-27T22:50:11.838Z,81.10
2023-05-27T22:52:43.825Z,81.60
2023-05-27T22:55:16.070Z,81.70
2023-05-27T22:57:48.036Z,82.00
2023-05-27T23:00:20.078Z,82.20
2023-05-27T23:02:52.229Z,82.40
2023-05-27T23:05:24.309Z,82.80
2023-05-27T23:07:56.309Z,82.90
2023-05-27T23:10:28.331Z,83.30
2023-05-27T23:13:00.411Z,83.40
2023-05-27T23:15:33.592Z,83.60
2023-05-27T23:18:05.768Z,84.00
2023-05-27T23:20:37.922Z,84.30
2023-05-27T23:23:09.937Z,84.30
2023-05-27T23:25:42.182Z,84.70
2023-05-27T23:28:14.157Z,84.90
2023-05-27T23:30:46.092Z,85.20
2023-05-27T23:33:18.186Z,85.50
2023-05-27T23:35:50.212Z,85.70
2023-05-27T23:38:22.708Z,85.70
2023-05-27T23:40:54.702Z,85.80
2023-05-27T23:43:28.446Z,86.40
2023-05-27T23:46:00.597Z,86.60
2023-05-27T23:48:34.534Z,86.80
2023-05-27T23:51:08.027Z,86.90
2023-05-27T23:53:40.006Z,87.30
2023-05-27T23:56:11.960Z,87.30
2023-05-27T23:58:43.918Z,87.70
